Time;durP1;ratioP1;P1;durP2;ratioP2;P2;SDS_P1;SDS_P2;PMS_P1;PMS_P2;Temp;Humidity;BMP_temperature;BMP_pressure;BME280_temperature;BME280_humidity;BME280_pressure;Samples;Min_cycle;Max_cycle;Signal;HPM_P1;HPM_P2
2023/01/04 08:28:12;;;;;;;;;0.50;0.50;;;;;17.77;48.99;102155.06;5123717;27;45418;-72
2023/01/04 08:30:37;;;;;;;;;0.75;0.75;;;;;18.15;49.39;102147.41;5110075;27;45390;-69
2023/01/04 08:33:12;;;;;;;;;0.00;0.00;;;;;18.70;49.71;102142.94;5108988;27;45443;-73
2023/01/04 08:35:37;;;;;;;;;2.00;1.00;;;;;19.36;50.26;102138.56;5106480;27;45575;-71
2023/01/04 08:38:03;;;;;;;;;1.00;1.00;;;;;20.12;49.61;102159.34;5098439;27;50896;-72
2023/01/04 08:40:28;;;;;;;;;1.00;0.00;;;;;20.76;49.75;102154.72;5105061;27;45504;-71
2023/01/04 08:42:53;;;;;;;;;0.00;0.00;;;;;21.30;49.58;102147.91;5112540;27;45716;-74
2023/01/04 08:45:19;;;;;;;;;0.67;0.00;;;;;21.85;49.11;102158.06;5104453;27;46996;-69
2023/01/04 08:47:44;;;;;;;;;0.67;0.67;;;;;22.33;48.61;102161.47;5108813;27;51288;-70
2023/01/04 08:50:09;;;;;;;;;0.00;0.00;;;;;22.76;48.01;102153.47;5104300;27;45428;-70
2023/01/04 08:52:34;;;;;;;;;0.00;0.00;;;;;23.08;48.01;102149.00;5118913;27;45388;-71
2023/01/04 08:55:00;;;;;;;;;1.00;0.00;;;;;23.41;47.46;102145.28;5099063;27;45790;-71
2023/01/04 08:57:25;;;;;;;;;0.67;0.00;;;;;23.69;46.93;102150.13;5099959;27;45581;-71
2023/01/04 08:59:50;;;;;;;;;0.00;0.00;;;;;23.90;46.75;102144.66;5104203;27;47185;-69
2023/01/04 09:02:20;;;;;;;;;1.67;1.00;;;;;24.12;46.72;102142.78;5111350;27;45421;-70
2023/01/04 09:04:46;;;;;;;;;0.00;0.00;;;;;24.29;46.23;102151.22;5108191;27;45431;-69
2023/01/04 09:07:11;;;;;;;;;0.00;0.00;;;;;24.48;46.04;102153.09;5105688;27;45463;-70
2023/01/04 09:09:36;;;;;;;;;0.00;0.00;;;;;24.58;45.80;102140.41;5110425;27;50454;-70
2023/01/04 09:12:02;;;;;;;;;0.33;0.33;;;;;24.79;45.67;102161.13;5109257;27;45473;-70
2023/01/04 09:14:27;;;;;;;;;1.00;1.00;;;;;24.91;45.57;102151.00;5115360;27;45425;-70
2023/01/04 09:16:52;;;;;;;;;0.00;0.00;;;;;25.01;44.95;102145.56;5108799;27;54281;-72
2023/01/04 09:19:18;;;;;;;;;0.00;0.00;;;;;25.13;45.26;102154.41;5102603;27;45394;-72
2023/01/04 09:21:43;;;;;;;;;0.67;0.00;;;;;25.23;44.83;102148.97;5102882;27;45399;-72
2023/01/04 09:24:08;;;;;;;;;0.67;0.67;;;;;25.32;44.79;102156.25;5106095;27;46586;-71
2023/01/04 09:26:33;;;;;;;;;0.67;0.67;;;;;25.43;44.63;102152.50;5095431;27;46076;-72
2023/01/04 09:28:59;;;;;;;;;0.00;0.00;;;;;25.56;44.33;102148.63;5115011;27;45723;-70
2023/01/04 09:31:28;;;;;;;;;1.00;0.00;;;;;25.67;44.10;102143.00;5114867;27;45499;-71
2023/01/04 09:33:55;;;;;;;;;0.33;0.00;;;;;25.77;44.02;102149.25;5103527;27;45439;-72
2023/01/04 09:36:22;;;;;;;;;0.00;0.00;;;;;25.89;44.17;102149.91;5109936;27;45998;-72
2023/01/04 09:38:48;;;;;;;;;0.67;0.00;;;;;25.98;43.68;102148.16;5100664;27;45587;-74
2023/01/04 09:41:13;;;;;;;;;2.33;1.33;;;;;26.07;43.60;102165.41;5092775;27;45507;-73
2023/01/04 09:43:52;;;;;;;;;0.00;0.00;;;;;26.15;43.64;102164.66;5084423;27;45370;-71
2023/01/04 09:46:48;;;;;;;;;0.00;0.00;;;;;26.21;43.38;102158.63;5091262;27;45437;-72
2023/01/04 09:49:19;;;;;;;;;0.67;0.00;;;;;26.25;43.53;102164.66;5087301;27;45481;-72
2023/01/04 09:52:10;;;;;;;;;1.00;1.00;;;;;26.30;43.19;102154.16;5096834;27;45914;-73
2023/01/04 09:54:42;;;;;;;;;0.00;0.00;;;;;26.29;43.27;102147.84;5083695;27;45689;-72
2023/01/04 09:57:19;;;;;;;;;0.00;0.00;;;;;26.36;43.15;102142.63;5096241;27;46403;-74
2023/01/04 09:59:46;;;;;;;;;0.67;0.67;;;;;26.39;43.06;102144.19;5091110;27;45406;-74
2023/01/04 10:02:20;;;;;;;;;0.33;0.33;;;;;26.41;42.87;102136.75;5100363;27;45366;-74
2023/01/04 10:04:49;;;;;;;;;0.33;0.33;;;;;26.42;42.64;102144.75;5087963;27;45623;-73
2023/01/04 10:07:27;;;;;;;;;0.00;0.00;;;;;26.39;42.29;102149.63;5082085;27;45333;-73
2023/01/04 10:09:53;;;;;;;;;0.00;0.00;;;;;26.37;42.25;102147.09;5087175;27;45454;-72
2023/01/04 10:12:39;;;;;;;;;1.00;1.00;;;;;26.47;42.51;102154.31;5094941;27;45475;-72
2023/01/04 10:15:25;;;;;;;;;0.00;0.00;;;;;26.52;42.53;102150.13;5088830;27;45622;-73
2023/01/04 10:17:59;;;;;;;;;0.00;0.00;;;;;26.57;41.82;102157.84;5089805;27;46353;-73
2023/01/04 10:20:47;;;;;;;;;0.00;0.00;;;;;26.61;41.98;102152.94;5094186;27;46471;-72
2023/01/04 10:23:30;;;;;;;;;0.00;0.00;;;;;26.66;41.66;102145.16;5095868;27;45433;-75
2023/01/04 10:25:59;;;;;;;;;0.00;0.00;;;;;26.71;41.73;102142.81;5099960;27;45433;-75
2023/01/04 10:28:48;;;;;;;;;1.33;0.67;;;;;26.77;41.68;102150.34;5083552;27;45594;-75
2023/01/04 10:31:29;;;;;;;;;2.00;0.00;;;;;26.84;41.71;102143.28;5090694;27;45586;-76
2023/01/04 10:34:32;;;;;;;;;2.00;0.00;;;;;26.88;42.00;102132.91;5086763;27;45393;-77
2023/01/04 10:37:03;;;;;;;;;0.00;0.00;;;;;27.00;41.50;102152.63;5093817;27;45552;-73
2023/01/04 10:39:32;;;;;;;;;1.00;0.00;;;;;27.05;41.68;102157.63;5091290;27;46121;-73
2023/01/04 10:42:15;;;;;;;;;2.00;1.00;;;;;27.09;41.69;102150.81;5090543;27;45453;-72
2023/01/04 10:44:45;;;;;;;;;0.00;0.00;;;;;27.10;41.69;102145.19;5092140;27;45525;-71
2023/01/04 10:47:38;;;;;;;;;0.00;0.00;;;;;27.11;41.45;102146.06;5096959;27;45615;-71
2023/01/04 10:50:15;;;;;;;;;2.00;2.00;;;;;27.07;41.08;102131.91;5082636;27;45351;-71
2023/01/04 10:52:50;;;;;;;;;0.00;0.00;;;;;27.09;41.17;102135.31;5096188;27;45965;-72
2023/01/04 10:55:37;;;;;;;;;1.00;1.00;;;;;27.12;40.88;102145.03;5093812;27;45443;-74
2023/01/04 10:58:16;;;;;;;;;0.33;0.00;;;;;27.13;40.75;102135.00;5094286;27;45452;-74
2023/01/04 11:00:52;;;;;;;;;0.00;0.00;;;;;27.08;41.28;102128.16;5096917;27;45454;-75
2023/01/04 11:03:25;;;;;;;;;1.00;1.00;;;;;27.05;40.78;102119.47;5096703;27;45786;-73
2023/01/04 11:06:14;;;;;;;;;1.00;1.00;;;;;27.09;41.30;102121.69;5094457;27;45559;-75
2023/01/04 11:08:55;;;;;;;;;0.00;0.00;;;;;27.14;40.83;102109.47;5092552;27;45582;-75
2023/01/04 11:11:27;;;;;;;;;0.00;0.00;;;;;27.18;40.67;102113.59;5095830;27;46282;-76
2023/01/04 11:13:52;;;;;;;;;0.33;0.00;;;;;27.21;40.79;102111.38;5096079;27;45791;-73
2023/01/04 11:16:18;;;;;;;;;1.00;1.00;;;;;27.25;40.68;102101.00;5097499;27;45384;-74
2023/01/04 11:18:47;;;;;;;;;0.00;0.00;;;;;27.28;40.65;102097.09;5095472;27;45399;-73
2023/01/04 11:21:15;;;;;;;;;0.00;0.00;;;;;27.29;40.54;102098.81;5096159;27;46338;-72
2023/01/04 11:23:40;;;;;;;;;0.00;0.00;;;;;27.27;40.32;102092.69;5097755;27;45674;-75
2023/01/04 11:26:14;;;;;;;;;1.67;1.00;;;;;27.25;40.53;102090.09;5078342;27;45374;-72
2023/01/04 11:28:48;;;;;;;;;0.00;0.00;;;;;27.27;40.37;102106.31;5081522;27;45469;-74
2023/01/04 11:31:25;;;;;;;;;1.00;1.00;;;;;27.25;41.00;102097.44;5095800;27;45378;-74
2023/01/04 11:34:02;;;;;;;;;1.00;1.00;;;;;27.20;40.85;102090.59;5089780;27;45478;-74
2023/01/04 11:36:32;;;;;;;;;0.00;0.00;;;;;27.18;40.33;102097.22;5095927;27;45414;-74
2023/01/04 11:38:58;;;;;;;;;1.00;0.00;;;;;27.13;40.99;102094.13;5092932;27;45566;-74
2023/01/04 11:41:25;;;;;;;;;1.33;0.00;;;;;27.12;40.80;102090.53;5092296;27;46455;-74
2023/01/04 11:43:59;;;;;;;;;0.00;0.00;;;;;27.07;40.15;102088.31;5089934;27;45537;-73
2023/01/04 11:46:27;;;;;;;;;2.00;0.67;;;;;27.05;40.16;102087.59;5080213;27;45878;-73
2023/01/04 11:48:54;;;;;;;;;0.00;0.00;;;;;27.03;40.37;102088.78;5095064;27;45419;-71
2023/01/04 11:51:25;;;;;;;;;0.00;0.00;;;;;27.01;40.31;102085.38;5094663;27;45444;-74
2023/01/04 11:54:01;;;;;;;;;1.67;0.67;;;;;27.00;40.24;102084.50;5095312;27;45394;-74
2023/01/04 11:56:28;;;;;;;;;0.67;0.00;;;;;27.03;40.24;102086.06;5087208;27;45411;-71
2023/01/04 11:59:14;;;;;;;;;0.00;0.00;;;;;27.06;40.55;102081.13;5094472;27;45459;-73
2023/01/04 12:01:44;;;;;;;;;1.33;1.00;;;;;27.08;40.35;102078.25;5085268;27;46503;-71
2023/01/04 12:04:18;;;;;;;;;1.00;1.00;;;;;27.18;40.68;102084.44;5095430;27;45761;-70
2023/01/04 12:06:53;;;;;;;;;1.67;0.67;;;;;27.21;40.27;102075.09;5093562;27;45407;-72
2023/01/04 12:09:20;;;;;;;;;0.33;0.33;;;;;27.38;40.46;102084.22;5101554;27;45479;-71
2023/01/04 12:11:52;;;;;;;;;0.00;0.00;;;;;27.47;40.45;102080.50;5092447;27;46201;-71
2023/01/04 12:14:35;;;;;;;;;0.00;0.00;;;;;27.46;40.54;102053.44;5092243;27;45534;-71
2023/01/04 12:17:17;;;;;;;;;0.00;0.00;;;;;27.44;40.36;102039.97;5093229;27;45469;-71
2023/01/04 12:19:44;;;;;;;;;0.00;0.00;;;;;27.39;39.95;102025.97;5096428;27;45677;-70
2023/01/04 12:22:21;;;;;;;;;5.00;1.00;;;;;27.47;40.17;102046.97;5094794;27;46241;-71
2023/01/04 12:24:48;;;;;;;;;2.00;0.00;;;;;27.56;39.82;102059.59;5092303;27;45568;-74
2023/01/04 12:27:14;;;;;;;;;0.00;0.00;;;;;27.46;40.21;102040.63;5082201;27;45399;-72
2023/01/04 12:30:00;;;;;;;;;1.00;1.00;;;;;27.54;39.83;102049.88;5092260;27;45759;-75
2023/01/04 12:32:26;;;;;;;;;0.00;0.00;;;;;27.49;39.83;102051.22;5086328;27;45537;-71
2023/01/04 12:34:52;;;;;;;;;0.00;0.00;;;;;27.45;39.70;102044.38;5097686;27;45448;-71
2023/01/04 12:37:36;;;;;;;;;0.00;0.00;;;;;27.46;39.74;102031.63;5094268;27;45429;-69
2023/01/04 12:40:02;;;;;;;;;0.00;0.00;;;;;27.44;39.63;102039.97;5094919;27;45490;-71
2023/01/04 12:42:27;;;;;;;;;0.00;0.00;;;;;27.44;39.73;102044.53;5087744;27;46176;-70
2023/01/04 12:44:52;;;;;;;;;1.00;1.00;;;;;27.46;40.11;102046.09;5089598;27;45398;-70
2023/01/04 12:50:18;;;;;;;;;0.67;0.67;;;;;27.53;39.76;102018.16;5058546;28;45392;-71
2023/01/04 12:52:52;;;;;;;;;0.00;0.00;;;;;27.49;39.86;102009.47;5067744;28;45525;-73
2023/01/04 12:55:29;;;;;;;;;1.33;1.33;;;;;27.59;40.30;102020.25;5069581;27;45547;-71
2023/01/04 12:57:56;;;;;;;;;0.00;0.00;;;;;27.59;39.70;102018.34;5070031;27;45476;-73
2023/01/04 13:00:21;;;;;;;;;0.00;0.00;;;;;27.60;40.14;102011.06;5073993;27;45876;-73
2023/01/04 13:03:18;;;;;;;;;1.33;0.00;;;;;27.62;39.61;102007.16;5073507;27;46710;-77
2023/01/04 13:06:03;;;;;;;;;0.67;0.67;;;;;27.62;40.25;102020.78;5054022;27;45772;-77
2023/01/04 13:08:34;;;;;;;;;0.00;0.00;;;;;27.59;40.15;102004.72;5070884;27;45635;-77
2023/01/04 13:11:02;;;;;;;;;1.00;1.00;;;;;27.54;39.79;102007.09;5070602;27;45778;-77
2023/01/04 13:13:41;;;;;;;;;0.00;0.00;;;;;27.53;39.84;102021.75;5070987;27;46602;-77
2023/01/04 13:16:27;;;;;;;;;0.00;0.00;;;;;27.49;39.47;102021.22;5073760;27;45497;-76
2023/01/04 13:18:57;;;;;;;;;0.00;0.00;;;;;27.41;39.91;102015.75;5078704;27;45507;-75
2023/01/04 13:21:33;;;;;;;;;0.00;0.00;;;;;27.39;39.50;102015.06;5074322;27;45452;-78
2023/01/04 13:24:12;;;;;;;;;0.00;0.00;;;;;27.36;39.99;102010.78;5055442;27;46526;-75
2023/01/04 13:26:50;;;;;;;;;1.00;1.00;;;;;27.36;39.89;102010.78;5084568;27;45512;-72
2023/01/04 13:29:17;;;;;;;;;1.00;1.00;;;;;27.37;39.98;102003.44;5092649;27;45559;-70
2023/01/04 13:31:48;;;;;;;;;0.00;0.00;;;;;27.43;39.55;102010.13;5085883;27;45730;-69
2023/01/04 13:34:18;;;;;;;;;0.33;0.00;;;;;27.42;39.46;102011.16;5097377;27;46945;-73
2023/01/04 13:36:43;;;;;;;;;0.00;0.00;;;;;27.42;39.37;102003.81;5095849;27;45399;-71
2023/01/04 13:39:10;;;;;;;;;0.00;0.00;;;;;27.50;40.16;102005.72;5097083;27;45469;-70
2023/01/04 13:41:36;;;;;;;;;0.67;0.00;;;;;27.52;39.77;102005.53;5091076;27;45389;-71
2023/01/04 13:44:13;;;;;;;;;0.00;0.00;;;;;27.54;39.50;101998.91;5096958;27;45429;-71
2023/01/04 13:46:42;;;;;;;;;0.33;0.33;;;;;27.57;40.10;102003.19;5090765;27;45687;-70
2023/01/04 13:49:16;;;;;;;;;0.00;0.00;;;;;27.56;39.44;102002.34;5100322;27;45484;-70
2023/01/04 13:51:41;;;;;;;;;2.00;1.00;;;;;27.55;39.46;101995.16;5095542;27;45659;-68
2023/01/04 13:54:21;;;;;;;;;1.00;1.00;;;;;27.53;39.48;101989.03;5095733;27;46017;-69
2023/01/04 13:56:48;;;;;;;;;3.00;0.33;;;;;27.53;39.82;101993.63;5094805;27;45460;-69
2023/01/04 13:59:14;;;;;;;;;0.00;0.00;;;;;27.47;39.31;101987.81;5096216;27;45406;-73
2023/01/04 14:01:43;;;;;;;;;1.00;0.00;;;;;27.49;39.35;101990.38;5089451;27;46368;-71
2023/01/04 14:04:27;;;;;;;;;1.00;1.00;;;;;27.44;39.29;101990.88;5094048;27;45903;-70
2023/01/04 14:06:57;;;;;;;;;0.00;0.00;;;;;27.49;39.92;101993.09;5088076;27;45969;-70
2023/01/04 14:09:54;;;;;;;;;0.00;0.00;;;;;27.53;39.91;101993.63;5094225;27;45425;-71
2023/01/04 14:12:23;;;;;;;;;3.00;1.00;;;;;27.57;40.09;101997.72;5093510;27;45564;-70
2023/01/04 14:15:13;;;;;;;;;1.67;0.00;;;;;27.62;40.12;101992.66;5094477;27;45422;-72
2023/01/04 14:17:55;;;;;;;;;1.00;1.00;;;;;27.70;40.19;101991.81;5100850;27;45549;-72
2023/01/04 14:20:24;;;;;;;;;0.33;0.33;;;;;27.73;39.37;102000.53;5095171;27;45435;-72
2023/01/04 14:22:57;;;;;;;;;0.00;0.00;;;;;27.74;39.12;102012.28;5095633;27;45557;-72
2023/01/04 14:25:54;;;;;;;;;1.00;1.00;;;;;27.62;38.94;101993.53;5096135;27;45401;-73
2023/01/04 14:28:29;;;;;;;;;1.00;1.00;;;;;27.53;39.30;102015.44;5096104;27;45487;-71
2023/01/04 14:31:12;;;;;;;;;0.33;0.33;;;;;27.45;39.02;102005.34;5092679;27;45840;-71
2023/01/04 14:33:42;;;;;;;;;0.00;0.00;;;;;27.41;38.73;102001.25;5077112;27;45462;-71
2023/01/04 14:36:28;;;;;;;;;1.33;0.00;;;;;27.38;39.06;101998.88;5091010;27;45673;-70
2023/01/04 14:39:03;;;;;;;;;1.00;1.00;;;;;27.40;38.77;101997.69;5090452;27;45854;-70
2023/01/04 14:41:51;;;;;;;;;2.00;0.33;;;;;27.38;38.95;101991.53;5095804;27;45445;-73
2023/01/04 14:44:20;;;;;;;;;0.33;0.33;;;;;27.46;39.40;101999.75;5083320;27;46741;-71
2023/01/04 14:46:54;;;;;;;;;0.00;0.00;;;;;27.50;39.01;102000.25;5095100;27;48314;-71
2023/01/04 14:49:21;;;;;;;;;0.00;0.00;;;;;27.52;39.17;101997.38;5094813;27;45498;-71
2023/01/04 14:51:47;;;;;;;;;2.67;1.00;;;;;27.59;39.32;102006.59;5087943;27;45626;-73
2023/01/04 14:54:14;;;;;;;;;0.00;0.00;;;;;27.64;38.44;102008.84;5096891;27;45448;-73
2023/01/04 14:56:39;;;;;;;;;2.00;2.00;;;;;27.65;39.23;102005.09;5094763;27;46477;-71
2023/01/04 14:59:06;;;;;;;;;0.67;0.67;;;;;27.69;38.76;102007.34;5097055;27;45506;-72
2023/01/04 15:01:32;;;;;;;;;0.33;0.33;;;;;27.73;39.23;102005.13;5090370;27;45493;-71
2023/01/04 15:03:57;;;;;;;;;2.00;1.00;;;;;27.72;38.76;102001.53;5088526;27;45485;-72
2023/01/04 15:06:23;;;;;;;;;1.00;1.00;;;;;27.74;38.84;102002.25;5084340;27;48279;-69
2023/01/04 15:08:49;;;;;;;;;2.67;1.00;;;;;27.78;38.65;102015.56;5095271;27;45507;-70
2023/01/04 15:11:14;;;;;;;;;0.00;0.00;;;;;27.78;38.45;102023.75;5092191;27;45457;-70
2023/01/04 15:13:40;;;;;;;;;1.00;1.00;;;;;27.80;39.18;102025.28;5084340;27;45634;-71
2023/01/04 15:16:10;;;;;;;;;0.00;0.00;;;;;27.82;38.99;102027.81;5084739;27;45509;-70
2023/01/04 15:18:36;;;;;;;;;2.00;0.00;;;;;27.81;39.02;102031.56;5079206;27;45476;-74
2023/01/04 15:21:02;;;;;;;;;2.33;1.00;;;;;27.80;39.18;102036.19;5095137;27;45740;-75
2023/01/04 15:23:27;;;;;;;;;0.00;0.00;;;;;27.81;39.06;102035.16;5092400;27;45431;-76
2023/01/04 15:25:53;;;;;;;;;0.33;0.33;;;;;27.80;38.59;102028.00;5095906;27;46227;-75
2023/01/04 15:28:20;;;;;;;;;2.00;1.00;;;;;27.79;38.40;102028.16;5094482;27;47666;-76
2023/01/04 15:30:45;;;;;;;;;0.00;0.00;;;;;27.78;38.47;102034.66;5089702;27;45392;-74
2023/01/04 15:33:11;;;;;;;;;1.67;1.67;;;;;27.80;39.17;102036.19;5089702;27;45484;-74
2023/01/04 15:35:36;;;;;;;;;2.00;1.00;;;;;27.80;38.60;102035.31;5104243;27;46878;-72
2023/01/04 15:38:02;;;;;;;;;0.00;0.00;;;;;27.80;38.86;102032.59;5094741;27;45564;-73
2023/01/04 15:40:27;;;;;;;;;0.00;0.00;;;;;27.83;39.21;102038.56;5107930;27;45386;-74
2023/01/04 15:42:58;;;;;;;;;0.00;0.00;;;;;27.85;38.43;102028.38;5099208;27;45396;-72
2023/01/04 15:45:27;;;;;;;;;1.33;0.00;;;;;27.82;38.66;102025.97;5090959;27;47032;-73
2023/01/04 15:47:56;;;;;;;;;0.00;0.00;;;;;27.73;38.61;102026.94;5088010;27;45463;-72
2023/01/04 15:50:22;;;;;;;;;0.00;0.00;;;;;27.57;38.45;102025.84;5093070;27;45542;-73
2023/01/04 15:52:47;;;;;;;;;0.67;0.00;;;;;27.38;38.43;102016.06;5094352;27;45555;-72
2023/01/04 15:55:13;;;;;;;;;1.00;1.00;;;;;27.26;38.33;102018.22;5095308;27;45443;-72
2023/01/04 15:57:38;;;;;;;;;1.00;1.00;;;;;27.09;38.33;102020.00;5094616;27;45807;-73
2023/01/04 16:00:04;;;;;;;;;0.00;0.00;;;;;26.99;38.65;102027.44;5086317;27;45403;-72
2023/01/04 16:02:30;;;;;;;;;0.67;0.67;;;;;26.91;37.99;102029.09;5089665;27;45489;-72
2023/01/04 16:04:56;;;;;;;;;0.00;0.00;;;;;26.78;38.12;102031.38;5092971;27;45539;-74
2023/01/04 16:07:21;;;;;;;;;0.00;0.00;;;;;26.73;38.07;102028.28;5093795;27;49374;-73
2023/01/04 16:09:46;;;;;;;;;3.00;1.00;;;;;26.75;37.93;102031.69;5091245;27;45455;-73
2023/01/04 16:15:13;;;;;;;;;1.00;0.67;;;;;26.83;38.36;102026.31;5082959;27;47204;-72
2023/01/04 16:17:40;;;;;;;;;0.00;0.00;;;;;26.96;38.72;102032.22;5092871;27;45506;-71
2023/01/04 16:20:06;;;;;;;;;0.00;0.00;;;;;27.08;38.20;102037.38;5082798;27;45493;-72
2023/01/04 16:22:32;;;;;;;;;0.00;0.00;;;;;27.14;38.34;102047.63;5094724;27;45497;-70
2023/01/04 16:24:57;;;;;;;;;1.00;1.00;;;;;27.19;38.66;102042.56;5088757;27;45483;-69
2023/01/04 16:27:22;;;;;;;;;0.00;0.00;;;;;27.23;38.65;102041.19;5092221;27;45440;-69
2023/01/04 16:29:51;;;;;;;;;0.00;0.00;;;;;27.29;38.04;102042.44;5089816;27;45438;-71
2023/01/04 16:32:17;;;;;;;;;1.00;1.00;;;;;27.32;38.08;102041.25;5091683;27;45398;-70
2023/01/04 16:34:43;;;;;;;;;1.00;1.00;;;;;27.34;38.06;102031.91;5087299;27;45592;-70
2023/01/04 16:37:08;;;;;;;;;1.00;0.67;;;;;27.39;38.67;102041.47;5092937;27;45587;-70
2023/01/04 16:39:33;;;;;;;;;0.67;0.00;;;;;27.39;38.02;102025.97;5091469;27;45493;-70
2023/01/04 16:41:59;;;;;;;;;0.00;0.00;;;;;27.40;38.25;102021.34;5093109;27;45492;-71
2023/01/04 16:44:25;;;;;;;;;3.00;1.33;;;;;27.40;37.92;102030.41;5084187;27;48514;-71
2023/01/04 16:46:50;;;;;;;;;0.33;0.00;;;;;27.34;37.97;102028.34;5088418;27;45524;-70
2023/01/04 16:49:16;;;;;;;;;0.33;0.33;;;;;27.30;38.34;102026.94;5093010;27;45780;-70
2023/01/04 16:51:46;;;;;;;;;1.00;1.00;;;;;27.29;37.93;102022.50;5084844;27;46011;-70
2023/01/04 16:54:13;;;;;;;;;2.00;1.00;;;;;27.31;38.36;102021.34;5096465;27;45432;-71
2023/01/04 16:56:40;;;;;;;;;2.33;0.00;;;;;27.35;38.28;102022.69;5097337;27;45531;-73
2023/01/04 16:59:07;;;;;;;;;0.00;0.00;;;;;27.43;38.03;102030.03;5092158;27;45536;-73
2023/01/04 17:01:34;;;;;;;;;0.33;0.33;;;;;27.52;38.06;102025.50;5088949;27;46118;-72
2023/01/04 17:04:02;;;;;;;;;1.33;1.33;;;;;27.60;38.12;102030.16;5096112;27;46647;-72
2023/01/04 17:06:30;;;;;;;;;2.00;0.33;;;;;27.67;38.49;102027.63;5088189;27;45435;-72
2023/01/04 17:08:57;;;;;;;;;1.00;1.00;;;;;27.72;37.86;102020.63;5094270;27;45905;-71
2023/01/04 17:11:26;;;;;;;;;3.33;0.00;;;;;27.70;38.54;102022.69;5092770;27;45694;-71
2023/01/04 17:13:51;;;;;;;;;1.00;1.00;;;;;27.77;37.85;102038.38;5093678;27;48039;-72
2023/01/04 17:16:20;;;;;;;;;1.00;1.00;;;;;27.74;38.26;102026.78;5088001;27;45551;-72
2023/01/04 17:18:46;;;;;;;;;1.00;0.67;;;;;27.73;38.29;102030.53;5099212;27;45726;-70
2023/01/04 17:21:13;;;;;;;;;2.00;0.33;;;;;27.75;38.39;102046.75;5081690;27;45369;-71
2023/01/04 17:23:43;;;;;;;;;1.00;1.00;;;;;27.70;37.83;102036.31;5094601;27;45642;-70
2023/01/04 17:26:12;;;;;;;;;1.00;1.00;;;;;27.68;38.33;102042.97;5094866;27;45425;-73
2023/01/04 17:28:38;;;;;;;;;0.00;0.00;;;;;27.64;37.63;102049.75;5087679;27;45458;-73
2023/01/04 17:31:06;;;;;;;;;3.00;1.00;;;;;27.59;38.36;102048.34;5089693;27;45548;-70
2023/01/04 17:33:31;;;;;;;;;2.00;2.00;;;;;27.56;38.10;102064.19;5090889;27;47043;-70
2023/01/04 17:36:01;;;;;;;;;0.00;0.00;;;;;27.53;38.31;102057.19;5102911;27;45647;-68
2023/01/04 17:38:26;;;;;;;;;0.67;0.67;;;;;27.51;37.79;102053.78;5095059;27;45477;-71
2023/01/04 17:40:52;;;;;;;;;0.33;0.33;;;;;27.39;37.51;102038.72;5093984;27;45458;-70
2023/01/04 17:43:17;;;;;;;;;0.33;0.33;;;;;27.40;37.88;102045.88;5090823;27;45893;-71
2023/01/04 17:45:42;;;;;;;;;1.00;1.00;;;;;27.41;38.22;102047.59;5097427;27;45395;-72
2023/01/04 17:48:08;;;;;;;;;0.00;0.00;;;;;27.41;38.04;102044.84;5093610;27;45450;-73
2023/01/04 17:50:33;;;;;;;;;2.33;0.33;;;;;27.40;37.66;102041.31;5096919;27;49436;-71
2023/01/04 17:52:59;;;;;;;;;1.67;1.67;;;;;27.33;37.80;102021.16;5107196;27;46448;-71
2023/01/04 17:55:24;;;;;;;;;0.00;0.00;;;;;27.44;38.38;102039.09;5096953;27;45390;-71
2023/01/04 17:57:50;;;;;;;;;0.00;0.00;;;;;27.49;37.44;102039.44;5095804;27;45424;-71
2023/01/04 18:00:15;;;;;;;;;1.00;1.00;;;;;27.53;37.55;102042.69;5091446;27;45630;-71
2023/01/04 18:02:42;;;;;;;;;0.00;0.00;;;;;27.56;37.55;102040.50;5090697;27;46082;-72
2023/01/04 18:05:08;;;;;;;;;2.00;0.33;;;;;27.57;37.58;102035.91;5090050;27;45407;-72
2023/01/04 18:07:34;;;;;;;;;0.67;0.67;;;;;27.64;37.97;102033.41;5104238;27;45496;-70
2023/01/04 18:10:00;;;;;;;;;2.00;1.00;;;;;27.67;37.62;102041.25;5086581;27;45815;-71
2023/01/04 18:12:28;;;;;;;;;1.00;1.00;;;;;27.69;37.82;102036.47;5088787;27;45652;-69
2023/01/04 18:14:53;;;;;;;;;1.33;0.00;;;;;27.65;37.47;102033.25;5088069;27;45731;-74
2023/01/04 18:17:19;;;;;;;;;1.00;0.00;;;;;27.68;37.40;102029.31;5101313;27;45889;-73
2023/01/04 18:19:44;;;;;;;;;1.00;0.00;;;;;27.67;37.94;102036.66;5086017;27;45434;-80
